Time;durP1;ratioP1;P1;durP2;ratioP2;P2;SDS_P1;SDS_P2;PMS_P1;PMS_P2;Temp;Humidity;BMP_temperature;BMP_pressure;BME280_temperature;BME280_humidity;BME280_pressure;Samples;Min_cycle;Max_cycle;Signal;HPM_P1;HPM_P2
2021/10/31 00:00:17;;;;;;;72.73;40.03;;;;;;;;;;5035370;28;20048;-88
2021/10/31 00:02:42;;;;;;;45.20;31.47;;;;;;;;;;5017726;28;20264;-88
2021/10/31 00:05:09;;;;;;;42.13;30.70;;;;;;;;;;5034741;28;20280;-88
2021/10/31 00:07:34;;;;;;;42.85;31.20;;;;;;;;;;5035194;28;20373;-88
2021/10/31 00:10:00;;;;;;;41.38;31.17;;;;;;;;;;5017545;28;20030;-88
2021/10/31 00:12:25;;;;;;;47.38;32.65;;;;;;;;;;5017346;28;20021;-88
2021/10/31 00:14:50;;;;;;;39.80;29.47;;;;;;;;;;5017372;28;20511;-88
2021/10/31 00:17:15;;;;;;;38.67;29.70;;;;;;;;;;5017012;28;20345;-88
2021/10/31 00:19:41;;;;;;;51.10;35.15;;;;;;;;;;5034804;28;20365;-88
2021/10/31 00:22:06;;;;;;;47.73;32.73;;;;;;;;;;5017157;28;20045;-88
2021/10/31 00:24:31;;;;;;;34.42;28.55;;;;;;;;;;5034797;28;20733;-88
2021/10/31 00:26:56;;;;;;;50.95;35.35;;;;;;;;;;5016895;28;20432;-88
2021/10/31 00:29:22;;;;;;;39.65;29.88;;;;;;;;;;5016818;28;20117;-88
2021/10/31 00:31:47;;;;;;;35.13;29.70;;;;;;;;;;5017200;28;20021;-88
2021/10/31 00:34:12;;;;;;;42.13;30.70;;;;;;;;;;5034514;28;20249;-88
2021/10/31 00:36:37;;;;;;;41.38;32.65;;;;;;;;;;5017132;28;21162;-88
2021/10/31 00:39:06;;;;;;;37.63;29.25;;;;;;;;;;5016721;28;20084;-87
2021/10/31 00:41:31;;;;;;;36.85;30.35;;;;;;;;;;5016777;28;20496;-88
2021/10/31 00:43:57;;;;;;;51.63;35.47;;;;;;;;;;5034681;28;20100;-88
2021/10/31 00:46:22;;;;;;;40.85;31.60;;;;;;;;;;5016656;28;20026;-87
2021/10/31 00:48:48;;;;;;;45.35;32.53;;;;;;;;;;5016699;28;20034;-87
2021/10/31 00:51:14;;;;;;;39.08;30.92;;;;;;;;;;5016605;28;20389;-87
2021/10/31 00:53:41;;;;;;;38.58;30.75;;;;;;;;;;5034348;28;20028;-88
2021/10/31 00:56:08;;;;;;;61.35;40.35;;;;;;;;;;5016572;28;20024;-88
2021/10/31 00:58:33;;;;;;;59.42;40.40;;;;;;;;;;5016253;28;20108;-88
2021/10/31 01:00:58;;;;;;;49.38;37.13;;;;;;;;;;5016517;28;20496;-87
2021/10/31 01:03:23;;;;;;;44.97;32.33;;;;;;;;;;5016851;28;20025;-87
2021/10/31 01:05:50;;;;;;;41.43;33.73;;;;;;;;;;5034035;28;20050;-87
2021/10/31 01:08:31;;;;;;;47.15;35.38;;;;;;;;;;5015760;28;20288;-88
2021/10/31 01:11:15;;;;;;;54.15;37.60;;;;;;;;;;5033983;28;20136;-88
2021/10/31 01:13:40;;;;;;;60.88;39.55;;;;;;;;;;5033919;28;20033;-87
2021/10/31 01:16:24;;;;;;;47.27;36.53;;;;;;;;;;5016309;28;20850;-88
2021/10/31 01:19:06;;;;;;;45.13;35.08;;;;;;;;;;5016123;28;20067;-88
2021/10/31 01:21:42;;;;;;;54.10;38.03;;;;;;;;;;5016066;28;20429;-88
2021/10/31 01:24:16;;;;;;;42.90;33.90;;;;;;;;;;5016001;28;20043;-87
2021/10/31 01:26:42;;;;;;;41.80;32.22;;;;;;;;;;5015935;28;20483;-88
2021/10/31 01:29:16;;;;;;;42.60;32.83;;;;;;;;;;5033879;28;20112;-87
2021/10/31 01:31:48;;;;;;;46.20;35.65;;;;;;;;;;5033752;28;20043;-87
2021/10/31 01:34:13;;;;;;;;;;;;;;;;;;5033912;28;20033;-87
2021/10/31 01:36:57;;;;;;;45.53;34.15;;;;;;;;;;5016017;28;19905;-87
2021/10/31 01:39:37;;;;;;;51.17;36.30;;;;;;;;;;5033806;28;20034;-88
2021/10/31 01:42:19;;;;;;;46.53;34.00;;;;;;;;;;5033111;28;20381;-88
2021/10/31 01:44:51;;;;;;;62.40;36.15;;;;;;;;;;5031148;28;20087;-88
2021/10/31 01:47:35;;;;;;;51.75;36.80;;;;;;;;;;5013133;28;20028;-88
2021/10/31 01:50:23;;;;;;;44.85;33.70;;;;;;;;;;5012629;28;20565;-88
2021/10/31 01:52:50;;;;;;;46.83;33.58;;;;;;;;;;5013218;28;20033;-88
2021/10/31 01:55:21;;;;;;;40.40;31.65;;;;;;;;;;5012892;28;20440;-88
2021/10/31 01:57:48;;;;;;;40.05;31.05;;;;;;;;;;5030252;28;20017;-88
2021/10/31 02:00:14;;;;;;;43.63;33.38;;;;;;;;;;5013038;28;20025;-88
2021/10/31 02:02:40;;;;;;;39.10;29.67;;;;;;;;;;5031241;28;20021;-88
2021/10/31 02:05:07;;;;;;;40.78;30.77;;;;;;;;;;5012528;28;20026;-88
2021/10/31 02:07:35;;;;;;;43.00;31.50;;;;;;;;;;5030481;28;20021;-88
2021/10/31 02:10:00;;;;;;;46.50;31.85;;;;;;;;;;5012556;28;20036;-88
2021/10/31 02:12:26;;;;;;;43.58;33.47;;;;;;;;;;5031762;28;20428;-88
2021/10/31 02:14:52;;;;;;;45.50;32.65;;;;;;;;;;5014752;28;20178;-88
2021/10/31 02:17:19;;;;;;;48.47;35.25;;;;;;;;;;5033246;28;20013;-88
2021/10/31 02:19:45;;;;;;;43.15;32.60;;;;;;;;;;5017862;28;20029;-88
2021/10/31 02:22:13;;;;;;;52.47;36.78;;;;;;;;;;5019408;28;20642;-88
2021/10/31 02:24:39;;;;;;;49.22;35.95;;;;;;;;;;5036973;28;20021;-88
2021/10/31 02:27:11;;;;;;;47.22;34.80;;;;;;;;;;5019346;28;20020;-88
2021/10/31 02:29:43;;;;;;;48.95;34.33;;;;;;;;;;5019052;28;20117;-88
2021/10/31 02:32:08;;;;;;;68.97;42.72;;;;;;;;;;5019211;28;20025;-88
2021/10/31 02:34:33;;;;;;;56.43;39.77;;;;;;;;;;5036888;28;20025;-88
2021/10/31 02:36:58;;;;;;;48.53;36.33;;;;;;;;;;5019106;28;20355;-88
2021/10/31 02:39:24;;;;;;;43.70;35.37;;;;;;;;;;5037004;28;21022;-88
2021/10/31 02:41:49;;;;;;;63.13;41.50;;;;;;;;;;5018989;28;20265;-88
2021/10/31 02:44:14;;;;;;;52.80;36.20;;;;;;;;;;5036734;28;20018;-88
2021/10/31 02:46:39;;;;;;;48.13;36.58;;;;;;;;;;5036801;28;20462;-88
2021/10/31 02:49:05;;;;;;;56.43;38.30;;;;;;;;;;5018824;28;20401;-88
2021/10/31 02:51:49;;;;;;;53.28;37.67;;;;;;;;;;5018666;28;20271;-88
2021/10/31 02:54:21;;;;;;;69.22;43.65;;;;;;;;;;5018808;28;20116;-88
2021/10/31 02:56:50;;;;;;;51.92;37.45;;;;;;;;;;5036386;28;20488;-88
2021/10/31 02:59:22;;;;;;;46.97;35.70;;;;;;;;;;5018553;28;20014;-88
2021/10/31 03:01:48;;;;;;;56.67;40.00;;;;;;;;;;5036504;28;20470;-88
2021/10/31 03:04:14;;;;;;;63.85;43.08;;;;;;;;;;5036441;28;20018;-88
2021/10/31 03:06:40;;;;;;;53.22;38.55;;;;;;;;;;5036391;28;20073;-88
2021/10/31 03:09:05;;;;;;;60.83;41.25;;;;;;;;;;5018533;28;20064;-87
2021/10/31 03:11:30;;;;;;;70.53;44.70;;;;;;;;;;5018450;28;20112;-88
2021/10/31 03:13:55;;;;;;;68.70;43.80;;;;;;;;;;5036384;28;20105;-88
2021/10/31 03:16:21;;;;;;;52.97;40.40;;;;;;;;;;5018344;28;20303;-88
2021/10/31 03:18:46;;;;;;;63.10;42.25;;;;;;;;;;5036178;28;20183;-88
2021/10/31 03:21:11;;;;;;;70.63;44.17;;;;;;;;;;5018150;28;20014;-88
2021/10/31 03:23:37;;;;;;;61.60;41.47;;;;;;;;;;5018087;28;20025;-88
2021/10/31 03:26:02;;;;;;;55.22;39.83;;;;;;;;;;5018129;28;20104;-88
2021/10/31 03:28:28;;;;;;;60.60;40.97;;;;;;;;;;5018419;28;20029;-88
2021/10/31 03:30:53;;;;;;;59.13;40.45;;;;;;;;;;5017590;28;20087;-88
2021/10/31 03:33:18;;;;;;;59.90;41.50;;;;;;;;;;5035770;28;20017;-88
2021/10/31 03:35:43;;;;;;;71.43;44.17;;;;;;;;;;5017807;28;20116;-88
2021/10/31 03:38:08;;;;;;;62.22;41.33;;;;;;;;;;5017831;28;20395;-88
2021/10/31 03:40:34;;;;;;;66.18;44.95;;;;;;;;;;5017844;28;20465;-88
2021/10/31 03:42:59;;;;;;;67.68;45.72;;;;;;;;;;5035903;28;20017;-88
2021/10/31 03:45:24;;;;;;;63.08;40.97;;;;;;;;;;5035610;28;20021;-88
2021/10/31 03:47:50;;;;;;;65.55;43.70;;;;;;;;;;5017693;28;20045;-88
2021/10/31 03:50:16;;;;;;;60.40;41.83;;;;;;;;;;5017811;28;20029;-88
2021/10/31 03:52:41;;;;;;;57.30;39.90;;;;;;;;;;5017838;28;20021;-88
2021/10/31 03:55:08;;;;;;;54.88;38.45;;;;;;;;;;5017790;28;20079;-88
2021/10/31 03:57:33;;;;;;;51.22;37.88;;;;;;;;;;5017973;28;20075;-88
2021/10/31 03:59:58;;;;;;;57.83;40.05;;;;;;;;;;5017426;28;20469;-88
2021/10/31 04:02:24;;;;;;;56.08;40.75;;;;;;;;;;5017388;28;20029;-88
2021/10/31 04:04:49;;;;;;;67.87;44.57;;;;;;;;;;5017625;28;20063;-88
2021/10/31 04:07:14;;;;;;;61.07;40.60;;;;;;;;;;5017552;28;20271;-88
2021/10/31 04:09:39;;;;;;;56.78;37.88;;;;;;;;;;5017986;28;20280;-88
2021/10/31 04:12:05;;;;;;;80.73;45.30;;;;;;;;;;5017376;28;20028;-88
2021/10/31 04:14:30;;;;;;;64.80;40.33;;;;;;;;;;5035009;28;20076;-87
2021/10/31 04:16:55;;;;;;;59.97;39.63;;;;;;;;;;5035017;28;20458;-87
2021/10/31 04:19:20;;;;;;;55.03;38.03;;;;;;;;;;5017469;28;20036;-88
2021/10/31 04:21:45;;;;;;;48.00;35.23;;;;;;;;;;5034695;28;20295;-88
2021/10/31 04:24:11;;;;;;;55.25;36.15;;;;;;;;;;5016798;28;20272;-88
2021/10/31 04:26:36;;;;;;;44.17;34.63;;;;;;;;;;5034762;28;20021;-88
2021/10/31 04:29:01;;;;;;;48.83;35.05;;;;;;;;;;5034704;28;20323;-88
2021/10/31 04:31:26;;;;;;;56.40;35.97;;;;;;;;;;5017003;28;20018;-88
2021/10/31 04:33:51;;;;;;;61.00;36.73;;;;;;;;;;5016949;28;20292;-88
2021/10/31 04:36:18;;;;;;;55.78;34.22;;;;;;;;;;5034657;28;20257;-88
2021/10/31 04:38:46;;;;;;;48.72;31.70;;;;;;;;;;5016653;28;20091;-87
2021/10/31 04:41:11;;;;;;;53.05;37.70;;;;;;;;;;5016595;28;20041;-87
2021/10/31 04:43:37;;;;;;;57.20;36.55;;;;;;;;;;5016756;28;20033;-88
2021/10/31 04:46:02;;;;;;;57.22;38.30;;;;;;;;;;5034590;28;20048;-88
2021/10/31 04:48:27;;;;;;;47.63;34.70;;;;;;;;;;5016587;28;20947;-88
2021/10/31 04:50:53;;;;;;;48.43;35.30;;;;;;;;;;5016498;28;20055;-87
2021/10/31 04:53:18;;;;;;;54.88;37.63;;;;;;;;;;5034243;28;20018;-88
2021/10/31 04:55:43;;;;;;;57.67;40.35;;;;;;;;;;5034040;28;20098;-87
2021/10/31 04:58:09;;;;;;;53.63;37.45;;;;;;;;;;5016789;28;20056;-87
2021/10/31 05:00:35;;;;;;;64.25;42.35;;;;;;;;;;5016628;28;20026;-87
2021/10/31 05:03:01;;;;;;;48.88;35.88;;;;;;;;;;5016466;28;20107;-87
2021/10/31 05:05:26;;;;;;;47.28;35.35;;;;;;;;;;5034090;28;20100;-87
2021/10/31 05:07:55;;;;;;;53.08;38.33;;;;;;;;;;5016361;28;20033;-87
2021/10/31 05:10:20;;;;;;;57.67;39.55;;;;;;;;;;5033882;28;20017;-88
2021/10/31 05:12:46;;;;;;;63.17;40.88;;;;;;;;;;5034152;28;20025;-87
2021/10/31 05:15:11;;;;;;;79.40;43.70;;;;;;;;;;5033953;28;20010;-87
2021/10/31 05:17:37;;;;;;;70.30;44.13;;;;;;;;;;5016431;28;20013;-88
2021/10/31 05:20:02;;;;;;;50.65;37.20;;;;;;;;;;5016150;28;20017;-87
2021/10/31 05:22:28;;;;;;;47.85;36.38;;;;;;;;;;5033837;28;20101;-87
2021/10/31 05:24:53;;;;;;;64.72;41.17;;;;;;;;;;5016263;28;20104;-88
2021/10/31 05:27:18;;;;;;;48.10;37.13;;;;;;;;;;5016223;28;20021;-88
2021/10/31 05:29:43;;;;;;;50.97;36.38;;;;;;;;;;5015835;28;20095;-88
2021/10/31 05:32:09;;;;;;;51.42;38.22;;;;;;;;;;5033370;28;20112;-88
2021/10/31 05:34:34;;;;;;;50.90;35.92;;;;;;;;;;5015961;28;20017;-88
2021/10/31 05:36:59;;;;;;;65.37;39.87;;;;;;;;;;5034071;28;20469;-88
2021/10/31 05:39:24;;;;;;;61.05;38.40;;;;;;;;;;5015861;28;20264;-87
2021/10/31 05:41:49;;;;;;;52.85;35.35;;;;;;;;;;5015914;28;20021;-88
2021/10/31 05:44:15;;;;;;;44.10;33.07;;;;;;;;;;5016089;28;20076;-87
2021/10/31 05:46:40;;;;;;;48.72;35.92;;;;;;;;;;5016091;28;20295;-87
2021/10/31 05:49:07;;;;;;;60.20;37.90;;;;;;;;;;5015850;28;20036;-87
2021/10/31 05:51:32;;;;;;;46.63;33.58;;;;;;;;;;5015869;28;20068;-87
2021/10/31 05:53:57;;;;;;;56.73;35.03;;;;;;;;;;5018396;28;20021;-87
2021/10/31 05:56:22;;;;;;;47.40;32.75;;;;;;;;;;5019807;28;20364;-87
2021/10/31 05:58:48;;;;;;;43.75;33.15;;;;;;;;;;5037608;28;20013;-87
2021/10/31 06:01:13;;;;;;;45.70;33.00;;;;;;;;;;5020089;28;20017;-87
2021/10/31 06:03:38;;;;;;;53.28;33.33;;;;;;;;;;5019619;28;20049;-87
2021/10/31 06:06:04;;;;;;;43.22;31.63;;;;;;;;;;5019613;28;20049;-87
2021/10/31 06:08:29;;;;;;;45.75;31.35;;;;;;;;;;5019543;28;20040;-87
2021/10/31 06:10:54;;;;;;;45.78;31.10;;;;;;;;;;5019203;28;20022;-87
2021/10/31 06:13:20;;;;;;;51.75;32.17;;;;;;;;;;5019295;28;20013;-87
2021/10/31 06:15:47;;;;;;;48.17;33.05;;;;;;;;;;5037285;28;20053;-87
2021/10/31 06:18:14;;;;;;;51.30;32.45;;;;;;;;;;5019740;28;20021;-87
2021/10/31 06:20:40;;;;;;;50.63;33.65;;;;;;;;;;5037199;28;20017;-87
2021/10/31 06:23:05;;;;;;;45.10;31.92;;;;;;;;;;5019490;28;20079;-87
2021/10/31 06:25:31;;;;;;;43.25;30.67;;;;;;;;;;5036743;28;20018;-87
2021/10/31 06:27:56;;;;;;;42.50;29.52;;;;;;;;;;5037130;28;20060;-87
2021/10/31 06:30:21;;;;;;;37.90;30.23;;;;;;;;;;5037162;28;20017;-87
2021/10/31 06:32:47;;;;;;;40.30;28.37;;;;;;;;;;5036883;28;20343;-87
2021/10/31 06:35:12;;;;;;;44.08;30.88;;;;;;;;;;5036629;28;20256;-87
2021/10/31 06:37:37;;;;;;;48.07;29.30;;;;;;;;;;5036900;28;20021;-87
2021/10/31 06:40:03;;;;;;;41.72;29.00;;;;;;;;;;5019002;28;20271;-87
2021/10/31 06:42:29;;;;;;;40.65;29.70;;;;;;;;;;5019068;28;20028;-87
2021/10/31 06:44:54;;;;;;;47.13;30.38;;;;;;;;;;5036578;28;20013;-87
2021/10/31 06:47:20;;;;;;;53.13;30.58;;;;;;;;;;5036680;28;20018;-87
2021/10/31 06:49:45;;;;;;;42.17;31.38;;;;;;;;;;5018693;28;20040;-87
2021/10/31 06:52:11;;;;;;;47.25;29.33;;;;;;;;;;5019071;28;20056;-87
2021/10/31 06:54:36;;;;;;;41.70;29.27;;;;;;;;;;5018790;28;20100;-88
2021/10/31 06:57:01;;;;;;;36.27;28.83;;;;;;;;;;5036154;28;20067;-87
2021/10/31 06:59:28;;;;;;;34.63;27.30;;;;;;;;;;5036559;28;20284;-87
2021/10/31 07:01:53;;;;;;;46.58;31.95;;;;;;;;;;5018326;28;20388;-87
2021/10/31 07:04:18;;;;;;;48.13;31.63;;;;;;;;;;5035826;28;20037;-87
2021/10/31 07:06:44;;;;;;;51.27;30.83;;;;;;;;;;5035590;28;20284;-87
2021/10/31 07:09:09;;;;;;;43.27;30.37;;;;;;;;;;5036161;28;20365;-88
2021/10/31 07:11:34;;;;;;;35.50;25.95;;;;;;;;;;5018066;28;21160;-88
2021/10/31 07:13:59;;;;;;;49.28;31.05;;;;;;;;;;5035925;28;20045;-87
2021/10/31 07:16:25;;;;;;;43.42;29.27;;;;;;;;;;5012007;28;20032;-87
2021/10/31 07:18:50;;;;;;;35.47;25.00;;;;;;;;;;5017180;28;20026;-87
2021/10/31 07:21:15;;;;;;;37.78;26.60;;;;;;;;;;5036003;28;20067;-87
2021/10/31 07:23:40;;;;;;;35.78;26.63;;;;;;;;;;5017873;28;20393;-87
2021/10/31 07:26:07;;;;;;;31.23;24.47;;;;;;;;;;5017183;28;20412;-87
2021/10/31 07:28:32;;;;;;;47.00;31.88;;;;;;;;;;5034584;28;20296;-87
2021/10/31 07:30:58;;;;;;;45.17;29.83;;;;;;;;;;5035612;28;20032;-87
2021/10/31 07:33:23;;;;;;;33.97;25.90;;;;;;;;;;5035811;28;20121;-88
2021/10/31 07:35:49;;;;;;;37.63;27.27;;;;;;;;;;5035267;28;20021;-86
2021/10/31 07:38:14;;;;;;;30.95;25.02;;;;;;;;;;5016143;28;20117;-87
2021/10/31 07:40:40;;;;;;;38.55;27.63;;;;;;;;;;5015716;28;20071;-87
2021/10/31 07:43:05;;;;;;;38.67;27.90;;;;;;;;;;5035196;28;20017;-87
2021/10/31 07:45:30;;;;;;;35.38;26.88;;;;;;;;;;5017239;28;20025;-87
2021/10/31 07:47:56;;;;;;;39.47;26.67;;;;;;;;;;5017153;28;20017;-88
2021/10/31 07:50:21;;;;;;;38.53;27.38;;;;;;;;;;5016312;28;20755;-87
2021/10/31 07:52:46;;;;;;;40.58;29.80;;;;;;;;;;5015842;28;20557;-88
2021/10/31 07:55:17;;;;;;;47.60;30.27;;;;;;;;;;5035054;28;20021;-88
2021/10/31 07:57:46;;;;;;;35.65;25.13;;;;;;;;;;5016390;28;20026;-88
2021/10/31 08:00:11;;;;;;;43.85;30.42;;;;;;;;;;5035014;28;20083;-88
2021/10/31 08:02:36;;;;;;;44.00;27.95;;;;;;;;;;5016556;28;20025;-88
2021/10/31 08:05:02;;;;;;;43.43;27.07;;;;;;;;;;5014527;28;20024;-88
2021/10/31 08:07:30;;;;;;;45.33;28.30;;;;;;;;;;5016001;28;20018;-89
2021/10/31 08:09:57;;;;;;;46.15;31.40;;;;;;;;;;5017046;28;20025;-89
2021/10/31 08:12:28;;;;;;;43.30;28.70;;;;;;;;;;5012848;28;20354;-90
2021/10/31 08:14:54;;;;;;;43.20;30.23;;;;;;;;;;4669390;22;22236;-87
2021/10/31 08:17:20;;;;;;;45.00;29.23;;;;;;;;;;5052745;28;20028;-87
2021/10/31 08:19:46;;;;;;;40.15;29.70;;;;;;;;;;5054280;28;20021;-87
2021/10/31 08:22:11;;;;;;;42.25;27.25;;;;;;;;;;5036662;28;20102;-87
2021/10/31 08:24:36;;;;;;;40.22;28.35;;;;;;;;;;5053999;28;20017;-87
2021/10/31 08:27:01;;;;;;;40.90;28.40;;;;;;;;;;5034434;28;20029;-87
2021/10/31 08:29:26;;;;;;;37.55;26.38;;;;;;;;;;5035725;28;20337;-87
2021/10/31 08:31:55;;;;;;;31.73;25.40;;;;;;;;;;5054115;28;20039;-87
2021/10/31 08:34:20;;;;;;;35.35;24.75;;;;;;;;;;5061026;28;20723;-87
2021/10/31 08:36:45;;;;;;;32.22;24.98;;;;;;;;;;5073571;28;20021;-87
2021/10/31 08:39:10;;;;;;;32.40;25.10;;;;;;;;;;5054531;28;20020;-87
2021/10/31 08:41:37;;;;;;;34.25;25.75;;;;;;;;;;5073403;28;20052;-87
2021/10/31 08:44:02;;;;;;;33.05;23.75;;;;;;;;;;5055972;28;20103;-87
2021/10/31 08:46:28;;;;;;;26.65;22.42;;;;;;;;;;5055969;28;20045;-87
2021/10/31 08:48:53;;;;;;;25.15;19.48;;;;;;;;;;5072815;28;20028;-87
2021/10/31 08:51:22;;;;;;;27.38;20.40;;;;;;;;;;5054063;28;20025;-87
2021/10/31 08:53:47;;;;;;;34.13;22.05;;;;;;;;;;5073973;28;20031;-87
2021/10/31 08:56:13;;;;;;;26.60;17.90;;;;;;;;;;5048257;28;20021;-88
2021/10/31 08:58:42;;;;;;;23.65;18.30;;;;;;;;;;5016453;28;20081;-87
2021/10/31 09:01:08;;;;;;;29.20;18.13;;;;;;;;;;5044419;28;20033;-87
2021/10/31 09:03:33;;;;;;;17.90;14.23;;;;;;;;;;5052165;28;20013;-87
2021/10/31 09:05:58;;;;;;;19.42;13.65;;;;;;;;;;5053367;28;20052;-87
2021/10/31 09:08:23;;;;;;;22.63;15.63;;;;;;;;;;5052864;28;20025;-87
2021/10/31 09:10:52;;;;;;;21.40;14.27;;;;;;;;;;5036987;28;20043;-87
2021/10/31 09:13:17;;;;;;;26.17;16.27;;;;;;;;;;5031711;28;20128;-87
2021/10/31 09:15:42;;;;;;;21.88;16.38;;;;;;;;;;5014529;28;20136;-87
2021/10/31 09:18:08;;;;;;;24.03;16.43;;;;;;;;;;5015513;28;20060;-87
2021/10/31 09:20:34;;;;;;;23.52;15.48;;;;;;;;;;5015438;28;20628;-87
2021/10/31 09:23:00;;;;;;;19.02;16.90;;;;;;;;;;5025077;28;20861;-87
2021/10/31 09:25:25;;;;;;;24.83;16.52;;;;;;;;;;5033285;28;20119;-87
2021/10/31 09:27:53;;;;;;;24.00;18.20;;;;;;;;;;5034230;28;20032;-87
2021/10/31 09:30:18;;;;;;;24.92;16.25;;;;;;;;;;5052839;28;20473;-87
2021/10/31 09:32:47;;;;;;;20.20;16.17;;;;;;;;;;5035301;28;20025;-87
2021/10/31 09:35:15;;;;;;;26.00;17.38;;;;;;;;;;5035027;28;20800;-87
2021/10/31 09:37:40;;;;;;;23.48;17.13;;;;;;;;;;5050528;28;20480;-87
2021/10/31 09:40:05;;;;;;;30.80;16.67;;;;;;;;;;5052205;28;20025;-87
2021/10/31 09:42:32;;;;;;;23.55;16.90;;;;;;;;;;5035208;28;20104;-87
2021/10/31 09:44:57;;;;;;;22.75;16.60;;;;;;;;;;5034836;28;20949;-87
2021/10/31 09:47:24;;;;;;;23.42;18.25;;;;;;;;;;5038636;28;20017;-87
2021/10/31 09:49:49;;;;;;;29.98;19.92;;;;;;;;;;5030452;28;20045;-88
2021/10/31 09:52:14;;;;;;;24.80;19.40;;;;;;;;;;5014195;28;20029;-88
2021/10/31 09:54:40;;;;;;;27.80;19.83;;;;;;;;;;5014788;28;20155;-88
2021/10/31 09:57:05;;;;;;;27.38;19.77;;;;;;;;;;5043621;28;20078;-88
2021/10/31 09:59:30;;;;;;;27.35;20.98;;;;;;;;;;5032671;28;20013;-87
2021/10/31 10:04:31;;;;;;;32.00;23.63;;;;;;;;;;5047947;28;20014;-87
2021/10/31 10:06:58;;;;;;;30.27;23.45;;;;;;;;;;5032502;28;20021;-87
2021/10/31 10:09:23;;;;;;;31.15;25.65;;;;;;;;;;5032439;28;20125;-87
2021/10/31 10:11:52;;;;;;;29.35;24.60;;;;;;;;;;5014136;28;20104;-87
2021/10/31 10:14:24;;;;;;;27.23;24.15;;;;;;;;;;5013554;28;20057;-87
2021/10/31 10:16:57;;;;;;;30.73;23.58;;;;;;;;;;5027553;28;20816;-87
2021/10/31 10:19:30;;;;;;;34.00;24.25;;;;;;;;;;5052371;28;20025;-88
2021/10/31 10:22:00;;;;;;;26.85;20.70;;;;;;;;;;5034011;28;20028;-88
2021/10/31 10:24:26;;;;;;;22.30;19.42;;;;;;;;;;5032027;28;20110;-87
2021/10/31 10:26:55;;;;;;;27.25;21.02;;;;;;;;;;5052099;28;20048;-87
2021/10/31 10:29:24;;;;;;;22.90;17.98;;;;;;;;;;5034266;28;20055;-87
2021/10/31 10:31:51;;;;;;;21.10;17.42;;;;;;;;;;5051344;28;20021;-87
2021/10/31 10:34:16;;;;;;;21.50;17.15;;;;;;;;;;5013622;28;20132;-87
2021/10/31 10:36:43;;;;;;;23.75;17.85;;;;;;;;;;5013323;28;20876;-87
2021/10/31 10:39:13;;;;;;;22.17;15.98;;;;;;;;;;5015048;28;20022;-87
2021/10/31 10:41:39;;;;;;;27.85;19.23;;;;;;;;;;5033253;28;20376;-87
2021/10/31 10:44:16;;;;;;;22.05;17.77;;;;;;;;;;5036574;28;20018;-87
2021/10/31 10:46:42;;;;;;;27.52;20.00;;;;;;;;;;5017595;28;20043;-88
2021/10/31 10:49:08;;;;;;;27.23;19.90;;;;;;;;;;5034135;28;20033;-88
2021/10/31 10:51:33;;;;;;;26.17;18.55;;;;;;;;;;5017706;28;20017;-87
2021/10/31 10:54:09;;;;;;;25.93;18.87;;;;;;;;;;5017895;28;20469;-87
2021/10/31 10:56:34;;;;;;;25.10;19.40;;;;;;;;;;5017786;28;20265;-87
2021/10/31 10:59:00;;;;;;;20.20;17.10;;;;;;;;;;5015997;28;20083;-87
2021/10/31 11:01:26;;;;;;;30.65;21.25;;;;;;;;;;5016904;28;20260;-87
2021/10/31 11:03:51;;;;;;;27.45;19.05;;;;;;;;;;5035645;28;20032;-88
2021/10/31 11:06:16;;;;;;;26.07;20.13;;;;;;;;;;5022310;28;20020;-87
2021/10/31 11:08:42;;;;;;;26.57;20.27;;;;;;;;;;5037350;28;20323;-87
2021/10/31 11:11:12;;;;;;;26.30;20.50;;;;;;;;;;5035472;28;20672;-87
2021/10/31 11:13:48;;;;;;;25.02;19.90;;;;;;;;;;5055010;28;20508;-87
2021/10/31 11:16:13;;;;;;;25.63;19.08;;;;;;;;;;5070031;28;20051;-87
2021/10/31 11:18:39;;;;;;;26.53;19.73;;;;;;;;;;5067634;28;20021;-87
2021/10/31 11:21:04;;;;;;;23.90;17.88;;;;;;;;;;5054855;28;20117;-87
2021/10/31 11:23:32;;;;;;;30.90;20.30;;;;;;;;;;5053208;28;20766;-87
2021/10/31 11:26:00;;;;;;;26.83;20.45;;;;;;;;;;5036431;28;20415;-87
2021/10/31 11:28:26;;;;;;;22.40;19.20;;;;;;;;;;5054945;28;20074;-87
2021/10/31 11:30:51;;;;;;;25.63;19.25;;;;;;;;;;5036979;28;20415;-88
2021/10/31 11:33:16;;;;;;;26.67;19.67;;;;;;;;;;5054264;28;20024;-88
2021/10/31 11:35:42;;;;;;;23.10;18.90;;;;;;;;;;5035567;28;20020;-88
2021/10/31 11:38:09;;;;;;;22.55;18.42;;;;;;;;;;5054999;28;20021;-87
2021/10/31 11:40:40;;;;;;;21.85;17.73;;;;;;;;;;5054959;28;20021;-87
2021/10/31 11:43:14;;;;;;;21.95;18.20;;;;;;;;;;5037286;28;20461;-88
2021/10/31 11:45:42;;;;;;;27.40;19.70;;;;;;;;;;5025984;28;20041;-88
2021/10/31 11:48:15;;;;;;;23.25;16.95;;;;;;;;;;5030732;28;20027;-88
2021/10/31 11:50:59;;;;;;;24.08;18.95;;;;;;;;;;5025175;28;20025;-88
2021/10/31 11:53:24;;;;;;;26.83;20.40;;;;;;;;;;5036892;28;20052;-88
2021/10/31 11:55:52;;;;;;;24.25;19.55;;;;;;;;;;5020472;28;20458;-88
2021/10/31 11:58:29;;;;;;;29.17;18.45;;;;;;;;;;5032528;28;20171;-87
2021/10/31 12:00:56;;;;;;;25.23;18.52;;;;;;;;;;5016845;28;20426;-87
2021/10/31 12:03:33;;;;;;;24.83;17.63;;;;;;;;;;5034365;28;20017;-87
2021/10/31 12:06:21;;;;;;;27.65;16.85;;;;;;;;;;5035056;28;20029;-87
2021/10/31 12:09:00;;;;;;;18.85;16.27;;;;;;;;;;5035566;28;20029;-87
2021/10/31 12:11:31;;;;;;;26.48;17.90;;;;;;;;;;5052357;28;20056;-88
2021/10/31 12:14:00;;;;;;;21.00;17.85;;;;;;;;;;5054328;28;20020;-88
2021/10/31 12:16:26;;;;;;;21.65;15.65;;;;;;;;;;5036161;28;20503;-87
2021/10/31 12:18:52;;;;;;;25.52;18.40;;;;;;;;;;5035469;28;20021;-87
2021/10/31 12:21:17;;;;;;;26.92;18.50;;;;;;;;;;5034332;28;20017;-87
2021/10/31 12:23:51;;;;;;;27.35;18.00;;;;;;;;;;5053807;28;20016;-87
2021/10/31 12:26:18;;;;;;;24.85;17.77;;;;;;;;;;5034051;28;20036;-87
2021/10/31 12:28:43;;;;;;;23.80;18.20;;;;;;;;;;5033931;28;20040;-87
2021/10/31 12:31:22;;;;;;;22.92;17.30;;;;;;;;;;5032962;28;20025;-88
2021/10/31 12:34:20;;;;;;;26.48;18.33;;;;;;;;;;5014669;28;20025;-87
2021/10/31 12:36:47;;;;;;;23.70;18.80;;;;;;;;;;5000242;28;20171;-87
2021/10/31 12:39:26;;;;;;;25.45;19.50;;;;;;;;;;5032808;28;20079;-87
2021/10/31 12:42:10;;;;;;;23.25;18.17;;;;;;;;;;5031485;28;20031;-88
2021/10/31 12:44:36;;;;;;;23.02;19.88;;;;;;;;;;5026454;28;20664;-88
2021/10/31 12:47:03;;;;;;;30.65;20.58;;;;;;;;;;5015257;28;20018;-87
2021/10/31 12:49:28;;;;;;;31.58;21.42;;;;;;;;;;5033516;28;20040;-87
2021/10/31 12:52:03;;;;;;;30.00;20.90;;;;;;;;;;5033543;28;20021;-87
2021/10/31 12:54:37;;;;;;;24.55;20.50;;;;;;;;;;5053465;28;20394;-88
2021/10/31 12:57:10;;;;;;;25.38;20.23;;;;;;;;;;5053529;28;20013;-88
2021/10/31 12:59:52;;;;;;;30.98;21.85;;;;;;;;;;5034129;28;20108;-88
2021/10/31 13:02:22;;;;;;;23.75;19.23;;;;;;;;;;5052240;28;20029;-88
2021/10/31 13:04:51;;;;;;;28.50;19.65;;;;;;;;;;5035321;28;20929;-87
2021/10/31 13:07:17;;;;;;;22.60;19.75;;;;;;;;;;5033555;28;20024;-87
2021/10/31 13:09:43;;;;;;;23.30;19.27;;;;;;;;;;5034875;28;20029;-87
2021/10/31 13:12:29;;;;;;;22.00;18.70;;;;;;;;;;5035178;28;20128;-87
2021/10/31 13:15:05;;;;;;;20.23;17.92;;;;;;;;;;5040900;28;20493;-87
2021/10/31 13:17:31;;;;;;;18.58;16.65;;;;;;;;;;5053158;28;20056;-87
2021/10/31 13:20:05;;;;;;;18.98;15.63;;;;;;;;;;5035249;28;20130;-87
2021/10/31 13:22:31;;;;;;;16.23;13.18;;;;;;;;;;5033835;28;20027;-87
2021/10/31 13:24:56;;;;;;;17.83;13.67;;;;;;;;;;5033539;28;20017;-87
2021/10/31 13:27:24;;;;;;;15.87;14.23;;;;;;;;;;5035161;28;20359;-87
2021/10/31 13:29:50;;;;;;;18.40;14.57;;;;;;;;;;5051999;28;20306;-87
2021/10/31 13:32:15;;;;;;;19.50;13.77;;;;;;;;;;5051365;28;20070;-87
2021/10/31 13:34:41;;;;;;;18.75;13.60;;;;;;;;;;5034894;28;20017;-87
2021/10/31 13:37:07;;;;;;;16.08;13.70;;;;;;;;;;5035235;28;20066;-87
2021/10/31 13:39:32;;;;;;;15.85;13.07;;;;;;;;;;5052718;28;20056;-87
2021/10/31 13:42:00;;;;;;;16.13;13.60;;;;;;;;;;5050915;28;20021;-87
2021/10/31 13:44:26;;;;;;;17.88;14.82;;;;;;;;;;5033059;28;20049;-87
2021/10/31 13:46:59;;;;;;;21.98;16.58;;;;;;;;;;5033337;28;20492;-87
2021/10/31 13:49:25;;;;;;;20.45;16.42;;;;;;;;;;5014694;28;20033;-87
2021/10/31 13:51:50;;;;;;;16.55;13.30;;;;;;;;;;5012699;28;20497;-87
2021/10/31 13:54:17;;;;;;;17.08;15.27;;;;;;;;;;5029925;28;20025;-87
2021/10/31 13:56:43;;;;;;;15.15;13.60;;;;;;;;;;5030160;28;20546;-87
2021/10/31 13:59:08;;;;;;;16.20;14.05;;;;;;;;;;5012904;28;20061;-87
2021/10/31 14:01:39;;;;;;;15.45;13.52;;;;;;;;;;5031593;28;20045;-87
2021/10/31 14:04:11;;;;;;;20.07;14.43;;;;;;;;;;5015614;28;20488;-87
2021/10/31 14:06:37;;;;;;;18.00;13.20;;;;;;;;;;5032589;28;20022;-87
2021/10/31 14:09:03;;;;;;;22.75;14.18;;;;;;;;;;5014822;28;20078;-87
2021/10/31 14:11:29;;;;;;;16.40;13.23;;;;;;;;;;5015119;28;20028;-87
2021/10/31 14:13:54;;;;;;;19.92;14.43;;;;;;;;;;5013783;28;20044;-87
2021/10/31 14:16:20;;;;;;;16.92;13.05;;;;;;;;;;5035299;28;20053;-87
2021/10/31 14:18:45;;;;;;;18.67;15.82;;;;;;;;;;5033249;28;20089;-87
2021/10/31 14:21:13;;;;;;;19.48;15.80;;;;;;;;;;5050597;28;20017;-87